createdAt,value
2019-06-01T00:00:30.740Z,84.93
2019-06-01T00:01:35.084Z,84.77
2019-06-01T00:02:40.785Z,84.78
2019-06-01T00:03:44.288Z,84.74
2019-06-01T00:04:49.390Z,84.74
2019-06-01T00:05:52.554Z,84.80
2019-06-01T00:06:56.909Z,84.58
2019-06-01T00:08:01.284Z,84.50
2019-06-01T00:09:05.620Z,84.56
2019-06-01T00:10:10.009Z,84.61
2019-06-01T00:11:14.381Z,84.67
2019-06-01T00:12:18.739Z,84.70
2019-06-01T00:13:23.073Z,84.67
2019-06-01T00:14:27.472Z,84.77
2019-06-01T00:15:31.845Z,85.28
2019-06-01T00:16:36.201Z,85.33
2019-06-01T00:17:41.762Z,85.17
2019-06-01T00:18:46.045Z,85.03
2019-06-01T00:19:50.336Z,84.91
2019-06-01T00:20:54.907Z,84.86
2019-06-01T00:21:58.053Z,84.86
2019-06-01T00:23:02.437Z,84.98
2019-06-01T00:24:06.794Z,85.02
2019-06-01T00:25:11.148Z,85.36
2019-06-01T00:26:15.500Z,85.16
2019-06-01T00:27:19.914Z,85.48
2019-06-01T00:28:24.223Z,85.35
2019-06-01T00:29:28.691Z,85.34
2019-06-01T00:30:32.994Z,85.41
2019-06-01T00:31:37.385Z,85.44
2019-06-01T00:32:42.775Z,85.53
2019-06-01T00:33:47.529Z,85.57
2019-06-01T00:34:50.429Z,85.44
2019-06-01T00:35:54.783Z,85.40
2019-06-01T00:36:59.113Z,85.29
2019-06-01T00:38:03.540Z,85.28
2019-06-01T00:39:07.857Z,85.33
2019-06-01T00:40:12.212Z,85.33
2019-06-01T00:41:16.592Z,85.33
2019-06-01T00:42:20.944Z,85.31
2019-06-01T00:43:25.329Z,85.67
2019-06-01T00:44:29.684Z,85.88
2019-06-01T00:45:34.025Z,85.69
2019-06-01T00:46:38.380Z,85.37
2019-06-01T00:47:42.782Z,85.67
2019-06-01T00:48:50.123Z,85.52
2019-06-01T00:49:53.568Z,85.24
2019-06-01T00:50:57.923Z,85.41
2019-06-01T00:52:02.289Z,85.55
2019-06-01T00:53:06.781Z,86.17
2019-06-01T00:54:11.097Z,86.26
2019-06-01T00:55:15.451Z,86.19
2019-06-01T00:56:19.826Z,86.26
2019-06-01T00:57:24.202Z,86.33
2019-06-01T00:58:28.587Z,86.33
2019-06-01T00:59:32.927Z,86.26
2019-06-01T01:00:43.606Z,86.08
2019-06-01T01:01:41.747Z,86.01
2019-06-01T01:02:46.069Z,85.93
2019-06-01T01:03:50.420Z,85.89
2019-06-01T01:04:54.793Z,85.91
2019-06-01T01:05:59.173Z,86.02
2019-06-01T01:07:03.591Z,86.02
2019-06-01T01:08:07.983Z,86.38
2019-06-01T01:09:12.297Z,86.42
2019-06-01T01:10:16.642Z,86.31
2019-06-01T01:11:20.958Z,86.32
2019-06-01T01:12:25.325Z,86.22
2019-06-01T01:13:29.714Z,86.13
2019-06-01T01:14:34.067Z,86.09
2019-06-01T01:15:38.431Z,86.18
2019-06-01T01:16:42.778Z,86.05
2019-06-01T01:17:47.863Z,86.04
2019-06-01T01:18:51.933Z,86.05
2019-06-01T01:19:56.039Z,85.98
2019-06-01T01:21:00.266Z,85.83
2019-06-01T01:22:04.607Z,85.75
2019-06-01T01:23:08.952Z,85.71
2019-06-01T01:24:13.322Z,85.66
2019-06-01T01:25:17.647Z,85.63
2019-06-01T01:26:22.022Z,85.85
2019-06-01T01:27:26.348Z,86.23
2019-06-01T01:28:30.694Z,86.17
2019-06-01T01:29:35.054Z,85.94
2019-06-01T01:30:39.412Z,85.85
2019-06-01T01:31:43.786Z,85.70
2019-06-01T01:32:49.432Z,85.75
2019-06-01T01:33:53.445Z,85.66
2019-06-01T01:34:57.826Z,85.67
2019-06-01T01:36:01.316Z,85.82
2019-06-01T01:37:05.681Z,85.96
2019-06-01T01:38:10.069Z,85.95
2019-06-01T01:39:14.474Z,85.96
2019-06-01T01:40:18.839Z,86.16
2019-06-01T01:41:23.185Z,86.16
2019-06-01T01:42:27.564Z,86.33
2019-06-01T01:43:31.953Z,86.35
2019-06-01T01:44:36.334Z,86.39
2019-06-01T01:45:40.690Z,86.59
2019-06-01T01:46:45.019Z,86.59
2019-06-01T01:47:49.515Z,86.61
2019-06-01T01:48:54.177Z,86.67
2019-06-01T01:49:58.200Z,86.79
2019-06-01T01:51:02.780Z,86.93
2019-06-01T01:52:06.777Z,86.98
2019-06-01T01:53:11.118Z,87.12
2019-06-01T01:54:15.528Z,87.07
2019-06-01T01:55:19.900Z,87.12
2019-06-01T01:56:24.277Z,87.01
2019-06-01T01:57:28.645Z,87.07
2019-06-01T01:58:33.006Z,86.99
2019-06-01T01:59:37.378Z,86.91
2019-06-01T02:00:41.732Z,86.92
2019-06-01T02:01:46.058Z,87.13
2019-06-01T02:02:51.758Z,87.15
2019-06-01T02:03:55.496Z,87.26
2019-06-01T02:04:59.945Z,87.68
2019-06-01T02:06:03.520Z,87.92
2019-06-01T02:07:07.874Z,87.96
2019-06-01T02:08:12.214Z,87.82
2019-06-01T02:09:16.543Z,87.81
2019-06-01T02:10:20.921Z,87.96
2019-06-01T02:11:25.295Z,88.11
2019-06-01T02:12:29.656Z,88.25
2019-06-01T02:13:33.996Z,88.29
2019-06-01T02:14:38.355Z,88.24
2019-06-01T02:15:42.700Z,88.16
2019-06-01T02:16:47.010Z,88.12
2019-06-01T02:17:52.030Z,88.08
2019-06-01T02:18:57.139Z,87.95
2019-06-01T02:20:00.319Z,88.03
2019-06-01T02:21:04.541Z,87.79
2019-06-01T02:22:08.862Z,87.71
2019-06-01T02:23:13.241Z,87.66
2019-06-01T02:24:17.593Z,87.55
2019-06-01T02:25:21.967Z,87.47
2019-06-01T02:26:26.338Z,87.36
2019-06-01T02:27:30.685Z,87.33
2019-06-01T02:28:35.041Z,87.35
2019-06-01T02:29:39.388Z,87.40
2019-06-01T02:30:43.785Z,87.38
2019-06-01T02:31:48.226Z,87.43
2019-06-01T02:32:53.761Z,87.55
2019-06-01T02:33:58.503Z,87.52
2019-06-01T02:35:02.590Z,87.59
2019-06-01T02:36:05.585Z,87.66
2019-06-01T02:37:09.878Z,87.82
2019-06-01T02:38:14.251Z,88.00
2019-06-01T02:39:18.603Z,88.19
2019-06-01T02:40:23.069Z,88.18
2019-06-01T02:41:27.386Z,88.09
2019-06-01T02:42:31.740Z,87.99
2019-06-01T02:43:36.106Z,87.88
2019-06-01T02:44:40.481Z,87.77
2019-06-01T02:45:44.850Z,87.77
2019-06-01T02:46:49.234Z,87.75
2019-06-01T02:47:55.254Z,87.61
2019-06-01T02:48:59.674Z,87.57
2019-06-01T02:50:04.276Z,87.41
2019-06-01T02:51:06.672Z,87.35
2019-06-01T02:52:11.031Z,87.20
2019-06-01T02:53:15.393Z,87.17
2019-06-01T02:54:19.768Z,87.28
2019-06-01T02:55:24.111Z,87.21
2019-06-01T02:56:28.466Z,87.13
2019-06-01T02:57:32.730Z,87.10
2019-06-01T02:58:37.158Z,87.04
2019-06-01T02:59:41.512Z,87.08
2019-06-01T03:00:45.867Z,87.05
2019-06-01T03:01:57.341Z,87.03
2019-06-01T03:02:54.589Z,87.08
2019-06-01T03:03:59.559Z,87.18
2019-06-01T03:05:03.362Z,87.15
2019-06-01T03:06:07.760Z,87.12
2019-06-01T03:07:12.104Z,87.01
2019-06-01T03:08:16.467Z,86.93
2019-06-01T03:09:20.817Z,86.95
2019-06-01T03:10:25.173Z,86.99
2019-06-01T03:11:29.546Z,86.99
2019-06-01T03:12:33.923Z,86.88
2019-06-01T03:13:38.271Z,86.77
2019-06-01T03:14:42.640Z,86.72
2019-06-01T03:15:47.006Z,86.52
2019-06-01T03:16:51.405Z,86.38
2019-06-01T03:17:55.746Z,86.31
2019-06-01T03:19:00.120Z,86.45
2019-06-01T03:20:04.920Z,86.36
2019-06-01T03:21:08.765Z,86.31
2019-06-01T03:22:13.133Z,86.37
2019-06-01T03:23:17.491Z,86.29
2019-06-01T03:24:21.859Z,86.27
2019-06-01T03:25:26.235Z,86.20
2019-06-01T03:26:30.581Z,86.25
2019-06-01T03:27:34.947Z,86.28
2019-06-01T03:28:39.427Z,86.23
2019-06-01T03:29:43.742Z,86.22
2019-06-01T03:30:48.114Z,86.20
2019-06-01T03:31:52.500Z,86.17
2019-06-01T03:32:56.820Z,86.17
2019-06-01T03:34:02.062Z,86.22
2019-06-01T03:35:06.710Z,86.22
2019-06-01T03:36:09.900Z,86.26
2019-06-01T03:37:14.268Z,86.26
2019-06-01T03:38:18.633Z,86.31
2019-06-01T03:39:23.017Z,86.35
2019-06-01T03:40:27.364Z,86.42
2019-06-01T03:41:31.728Z,86.60
2019-06-01T03:42:36.119Z,86.68
2019-06-01T03:43:40.489Z,86.66
2019-06-01T03:44:44.825Z,86.66
2019-06-01T03:45:49.177Z,86.81
2019-06-01T03:46:53.531Z,86.88
2019-06-01T03:47:57.926Z,87.01
2019-06-01T03:49:03.642Z,86.94
2019-06-01T03:50:06.976Z,86.96
2019-06-01T03:51:11.989Z,87.06
2019-06-01T03:52:15.395Z,86.92
2019-06-01T03:53:19.767Z,86.83
2019-06-01T03:54:24.110Z,86.74
2019-06-01T03:55:28.466Z,86.70
2019-06-01T03:56:32.870Z,86.75
2019-06-01T03:57:37.252Z,86.82
2019-06-01T03:58:41.602Z,86.73
2019-06-01T03:59:45.973Z,87.22
2019-06-01T04:00:50.337Z,87.15
2019-06-01T04:01:54.706Z,87.00
2019-06-01T04:02:59.108Z,86.92
2019-06-01T04:04:03.452Z,86.78
2019-06-01T04:05:07.808Z,86.78
2019-06-01T04:06:12.150Z,86.98
2019-06-01T04:07:16.466Z,86.84
2019-06-01T04:08:20.876Z,86.81
2019-06-01T04:09:25.318Z,86.83
2019-06-01T04:10:29.618Z,86.67
2019-06-01T04:11:34.032Z,86.73
2019-06-01T04:12:38.389Z,86.65
2019-06-01T04:13:42.741Z,86.61
2019-06-01T04:14:47.072Z,86.65
2019-06-01T04:15:51.447Z,86.52
2019-06-01T04:16:55.782Z,86.63
2019-06-01T04:18:00.180Z,86.64
2019-06-01T04:19:05.900Z,86.80
2019-06-01T04:20:10.107Z,87.14
2019-06-01T04:21:13.320Z,87.07
2019-06-01T04:22:17.675Z,86.84
2019-06-01T04:23:22.089Z,86.94
2019-06-01T04:24:26.446Z,86.75
2019-06-01T04:25:30.808Z,86.64
2019-06-01T04:26:35.175Z,86.60
2019-06-01T04:27:39.523Z,86.59
2019-06-01T04:28:43.891Z,86.53
2019-06-01T04:29:48.345Z,86.49
2019-06-01T04:30:52.616Z,86.40
2019-06-01T04:31:56.979Z,86.43
2019-06-01T04:33:02.513Z,86.33
2019-06-01T04:34:06.733Z,86.24
2019-06-01T04:35:11.122Z,86.33
2019-06-01T04:36:14.459Z,86.31
2019-06-01T04:37:18.857Z,86.37
2019-06-01T04:38:23.260Z,86.25
2019-06-01T04:39:27.613Z,86.14
2019-06-01T04:40:31.967Z,86.03
2019-06-01T04:41:36.339Z,86.07
2019-06-01T04:42:40.714Z,86.11
2019-06-01T04:43:45.214Z,86.05
2019-06-01T04:44:49.511Z,86.13
2019-06-01T04:45:53.887Z,86.18
2019-06-01T04:46:58.373Z,86.30
2019-06-01T04:48:02.687Z,86.31
2019-06-01T04:49:07.030Z,86.35
2019-06-01T04:50:11.431Z,86.45
2019-06-01T04:51:15.753Z,86.42
2019-06-01T04:52:20.117Z,86.47
2019-06-01T04:53:24.461Z,86.53
2019-06-01T04:54:28.870Z,86.59
2019-06-01T04:55:33.214Z,86.66
2019-06-01T04:56:37.576Z,86.59
2019-06-01T04:57:41.972Z,86.59
2019-06-01T04:58:46.354Z,86.54
2019-06-01T04:59:50.784Z,86.48
2019-06-01T05:00:55.146Z,86.42
2019-06-01T05:01:59.501Z,86.35
2019-06-01T05:03:06.767Z,86.29
2019-06-01T05:04:09.074Z,86.32
2019-06-01T05:05:13.378Z,86.32
2019-06-01T05:06:17.048Z,86.30
2019-06-01T05:07:21.420Z,86.24
2019-06-01T05:08:25.792Z,86.32
2019-06-01T05:09:30.179Z,86.24
2019-06-01T05:10:34.544Z,86.11
2019-06-01T05:11:38.912Z,85.90
2019-06-01T05:12:43.279Z,85.90
2019-06-01T05:13:47.631Z,86.08
2019-06-01T05:14:52.074Z,85.98
2019-06-01T05:15:56.446Z,85.94
2019-06-01T05:17:00.809Z,86.06
2019-06-01T05:18:05.962Z,86.08
2019-06-01T05:19:10.146Z,86.18
2019-06-01T05:20:14.720Z,86.39
2019-06-01T05:21:18.409Z,86.33
2019-06-01T05:22:22.796Z,86.30
2019-06-01T05:23:27.218Z,86.36
2019-06-01T05:24:31.624Z,86.25
2019-06-01T05:25:36.070Z,86.24
2019-06-01T05:26:40.515Z,86.14
2019-06-01T05:27:44.852Z,86.11
2019-06-01T05:28:49.267Z,86.19
2019-06-01T05:29:53.669Z,86.16
2019-06-01T05:30:58.006Z,86.10
2019-06-01T05:32:02.369Z,86.11
2019-06-01T05:33:21.442Z,86.16
2019-06-01T05:34:11.784Z,86.11
2019-06-01T05:35:15.879Z,85.98
2019-06-01T05:36:19.992Z,85.85
2019-06-01T05:37:24.390Z,85.84
2019-06-01T05:38:28.775Z,85.75
2019-06-01T05:39:33.159Z,85.73
2019-06-01T05:40:37.598Z,85.70
2019-06-01T05:41:41.972Z,85.70
2019-06-01T05:42:46.353Z,85.72
2019-06-01T05:43:50.731Z,85.66
2019-06-01T05:44:55.173Z,85.67
2019-06-01T05:45:59.524Z,85.53
2019-06-01T05:47:03.926Z,85.53
2019-06-01T05:48:08.325Z,85.47
2019-06-01T05:49:13.245Z,85.39
2019-06-01T05:50:18.458Z,85.38
2019-06-01T05:51:22.971Z,85.39
2019-06-01T05:52:26.066Z,85.36
2019-06-01T05:53:30.507Z,85.30
2019-06-01T05:54:34.840Z,85.22
2019-06-01T05:55:39.253Z,85.26
2019-06-01T05:56:43.629Z,85.16
2019-06-01T05:57:47.988Z,85.16
2019-06-01T05:58:52.372Z,85.12
2019-06-01T05:59:56.758Z,85.12
2019-06-01T06:01:01.186Z,85.08
2019-06-01T06:02:05.649Z,85.19
2019-06-01T06:03:12.827Z,85.17
2019-06-01T06:04:15.369Z,85.28
2019-06-01T06:05:18.934Z,85.20
2019-06-01T06:06:23.320Z,85.34
2019-06-01T06:07:27.723Z,85.33
2019-06-01T06:08:32.161Z,85.53
2019-06-01T06:09:36.698Z,86.01
2019-06-01T06:10:41.029Z,85.75
2019-06-01T06:11:45.506Z,85.93
2019-06-01T06:12:49.876Z,86.16
2019-06-01T06:13:54.211Z,85.88
2019-06-01T06:14:58.675Z,85.81
2019-06-01T06:16:03.056Z,86.04
2019-06-01T06:17:07.412Z,86.10
2019-06-01T06:18:11.777Z,85.91
2019-06-01T06:19:20.039Z,85.92
2019-06-01T06:20:20.558Z,85.95
2019-06-01T06:21:25.015Z,85.90
2019-06-01T06:22:29.347Z,85.82
2019-06-01T06:23:33.717Z,85.82
2019-06-01T06:24:38.096Z,85.83
2019-06-01T06:25:42.462Z,85.98
2019-06-01T06:26:46.867Z,85.82
2019-06-01T06:27:51.379Z,85.95
2019-06-01T06:28:55.750Z,85.98
2019-06-01T06:30:00.229Z,85.91
2019-06-01T06:31:04.563Z,85.98
2019-06-01T06:32:09.376Z,86.08
2019-06-01T06:33:13.422Z,85.86
2019-06-01T06:34:17.790Z,85.90
2019-06-01T06:35:22.165Z,85.91
2019-06-01T06:36:26.556Z,85.98
2019-06-01T06:37:30.945Z,86.13
2019-06-01T06:38:35.332Z,86.00
2019-06-01T06:39:39.744Z,86.17
2019-06-01T06:40:44.119Z,85.97
2019-06-01T06:41:48.496Z,86.00
2019-06-01T06:42:52.862Z,86.08
2019-06-01T06:43:57.237Z,85.89
2019-06-01T06:45:03.719Z,86.33
2019-06-01T06:46:06.018Z,86.31
2019-06-01T06:47:10.404Z,86.21
2019-06-01T06:48:14.989Z,86.18
2019-06-01T06:49:19.242Z,86.21
2019-06-01T06:50:23.665Z,86.28
2019-06-01T06:51:27.942Z,86.15
2019-06-01T06:52:32.379Z,85.98
2019-06-01T06:53:36.736Z,86.25
2019-06-01T06:54:41.114Z,86.13
2019-06-01T06:55:48.488Z,86.03
2019-06-01T06:56:51.989Z,85.94
2019-06-01T06:57:56.406Z,85.80
2019-06-01T06:59:00.739Z,85.87
2019-06-01T07:00:05.233Z,85.78
2019-06-01T07:01:12.020Z,85.70
2019-06-01T07:02:14.161Z,85.57
2019-06-01T07:03:18.939Z,85.44
2019-06-01T07:04:23.243Z,85.31
2019-06-01T07:05:29.409Z,85.18
2019-06-01T07:06:31.654Z,85.06
2019-06-01T07:07:36.113Z,85.09
2019-06-01T07:08:40.527Z,84.45
2019-06-01T07:09:44.967Z,83.60
2019-06-01T07:10:49.381Z,82.76
2019-06-01T07:11:53.817Z,82.00
2019-06-01T07:12:58.329Z,82.39
2019-06-01T07:14:02.690Z,82.35
2019-06-01T07:15:07.112Z,82.18
2019-06-01T07:16:11.495Z,81.73
2019-06-01T07:17:16.098Z,81.53
2019-06-01T07:18:21.443Z,81.00
2019-06-01T07:19:25.730Z,80.61
2019-06-01T07:20:29.231Z,80.49
2019-06-01T07:21:33.630Z,80.28
2019-06-01T07:22:38.093Z,79.11
2019-06-01T07:23:42.515Z,79.96
2019-06-01T07:24:46.953Z,79.84
2019-06-01T07:25:51.375Z,77.99
2019-06-01T07:26:55.770Z,77.20
2019-06-01T07:28:00.192Z,77.47
2019-06-01T07:29:04.631Z,77.91
2019-06-01T07:30:09.061Z,77.71
2019-06-01T07:31:13.482Z,78.40
2019-06-01T07:32:17.940Z,78.13
2019-06-01T07:33:22.463Z,78.38
2019-06-01T07:34:37.849Z,78.83
2019-06-01T07:35:31.214Z,78.59
2019-06-01T07:36:35.648Z,78.31
2019-06-01T07:37:40.076Z,78.36
2019-06-01T07:38:44.492Z,78.97
2019-06-01T07:39:49.016Z,78.83
2019-06-01T07:40:53.368Z,78.15
2019-06-01T07:41:57.946Z,78.57
2019-06-01T07:43:02.247Z,78.29
2019-06-01T07:44:06.642Z,78.27
2019-06-01T07:45:11.048Z,78.21
2019-06-01T07:46:15.469Z,77.89
2019-06-01T07:47:20.801Z,77.46
2019-06-01T07:48:24.966Z,76.03
2019-06-01T07:49:29.169Z,75.91
2019-06-01T07:50:33.269Z,75.18
2019-06-01T07:51:37.659Z,76.32
2019-06-01T07:52:42.110Z,76.67
2019-06-01T07:53:46.541Z,75.72
2019-06-01T07:54:50.989Z,76.60
2019-06-01T07:55:55.418Z,75.92
2019-06-01T07:56:59.822Z,76.38
2019-06-01T07:58:04.297Z,75.83
2019-06-01T07:59:08.760Z,76.12
2019-06-01T08:00:13.188Z,74.38
2019-06-01T08:01:17.630Z,74.04
2019-06-01T08:02:25.344Z,72.73
2019-06-01T08:03:29.464Z,74.11
2019-06-01T08:04:47.561Z,75.33
2019-06-01T08:05:35.369Z,74.26
2019-06-01T08:06:46.283Z,73.84
2019-06-01T08:07:44.212Z,74.74
2019-06-01T08:08:48.684Z,74.86
2019-06-01T08:09:53.088Z,74.33
2019-06-01T08:10:57.481Z,72.83
2019-06-01T08:12:02.061Z,73.69
2019-06-01T08:13:06.365Z,73.85
2019-06-01T08:14:10.952Z,73.76
2019-06-01T08:15:15.368Z,74.00
2019-06-01T08:16:19.818Z,72.97
2019-06-01T08:17:24.255Z,72.13
2019-06-01T08:18:30.022Z,70.47
2019-06-01T08:19:33.121Z,70.80
2019-06-01T08:20:37.549Z,71.59
2019-06-01T08:21:41.960Z,72.21
2019-06-01T08:22:46.404Z,72.98
2019-06-01T08:23:50.859Z,73.19
2019-06-01T08:24:55.319Z,70.84
2019-06-01T08:25:59.732Z,71.90
2019-06-01T08:27:04.183Z,71.73
2019-06-01T08:28:08.639Z,71.40
2019-06-01T08:29:13.097Z,71.34
2019-06-01T08:30:17.517Z,70.26
2019-06-01T08:31:22.537Z,69.81
2019-06-01T08:32:26.672Z,69.26
2019-06-01T08:33:32.966Z,69.67
2019-06-01T08:34:35.254Z,69.97
2019-06-01T08:35:39.692Z,70.64
2019-06-01T08:36:44.126Z,69.43
2019-06-01T08:37:48.570Z,68.17
2019-06-01T08:38:53.024Z,68.12
2019-06-01T08:39:59.298Z,68.22
2019-06-01T08:41:01.920Z,69.17
2019-06-01T08:42:06.456Z,67.27
2019-06-01T08:43:10.861Z,68.88
2019-06-01T08:44:15.310Z,69.63
2019-06-01T08:45:19.747Z,69.10
2019-06-01T08:46:25.452Z,69.78
2019-06-01T08:47:29.889Z,69.60
2019-06-01T08:48:34.055Z,67.03
2019-06-01T08:49:37.579Z,67.51
2019-06-01T08:50:45.874Z,67.83
2019-06-01T08:51:46.483Z,67.61
2019-06-01T08:52:50.959Z,65.84
2019-06-01T08:53:55.370Z,67.57
2019-06-01T08:54:59.842Z,65.68
2019-06-01T08:56:04.348Z,67.44
2019-06-01T08:57:08.822Z,67.02
2019-06-01T08:58:13.373Z,66.18
2019-06-01T08:59:17.767Z,66.56
2019-06-01T09:00:22.195Z,66.90
2019-06-01T09:01:26.667Z,65.17
2019-06-01T09:02:31.124Z,65.70
2019-06-01T09:03:43.699Z,64.47
2019-06-01T09:04:40.042Z,65.72
2019-06-01T09:05:44.579Z,63.15
2019-06-01T09:06:48.987Z,65.75
2019-06-01T09:07:53.457Z,65.74
2019-06-01T09:08:57.899Z,65.62
2019-06-01T09:10:02.342Z,64.78
2019-06-01T09:11:06.807Z,65.18
2019-06-01T09:12:11.231Z,65.48
2019-06-01T09:13:15.707Z,63.70
2019-06-01T09:14:20.163Z,64.59
2019-06-01T09:15:25.583Z,64.53
2019-06-01T09:16:29.639Z,64.78
2019-06-01T09:17:33.544Z,65.33
2019-06-01T09:18:38.005Z,63.66
2019-06-01T09:19:42.453Z,65.13
2019-06-01T09:20:46.953Z,65.38
2019-06-01T09:21:51.346Z,65.20
2019-06-01T09:22:55.795Z,65.53
2019-06-01T09:24:00.251Z,65.29
2019-06-01T09:25:04.725Z,65.40
2019-06-01T09:26:09.140Z,65.91
2019-06-01T09:27:13.621Z,66.57
2019-06-01T09:28:18.053Z,66.64
2019-06-01T09:29:22.476Z,66.53
2019-06-01T09:30:27.985Z,66.69
2019-06-01T09:31:32.381Z,66.97
2019-06-01T09:32:36.488Z,67.12
2019-06-01T09:33:40.286Z,67.04
2019-06-01T09:34:44.715Z,66.50
2019-06-01T09:35:55.997Z,65.85
2019-06-01T09:36:55.634Z,66.00
2019-06-01T09:37:58.212Z,64.33
2019-06-01T09:39:02.623Z,64.84
2019-06-01T09:40:07.111Z,65.36
2019-06-01T09:41:11.599Z,64.74
2019-06-01T09:42:16.030Z,65.36
2019-06-01T09:43:20.490Z,65.25
2019-06-01T09:44:24.896Z,65.54
2019-06-01T09:45:29.916Z,65.35
2019-06-01T09:46:35.199Z,64.95
2019-06-01T09:47:38.365Z,63.99
2019-06-01T09:48:42.855Z,63.08
2019-06-01T09:49:47.274Z,63.05
2019-06-01T09:50:51.764Z,62.95
2019-06-01T09:51:56.341Z,63.57
2019-06-01T09:53:00.696Z,63.38
2019-06-01T09:54:05.169Z,62.30
2019-06-01T09:55:09.618Z,63.73
2019-06-01T09:56:14.099Z,62.84
2019-06-01T09:57:18.537Z,63.24
2019-06-01T09:58:22.979Z,62.92
2019-06-01T09:59:27.756Z,62.10
2019-06-01T10:00:32.376Z,62.78
2019-06-01T10:01:36.692Z,63.13
2019-06-01T10:02:40.879Z,61.95
2019-06-01T10:03:45.305Z,63.07
2019-06-01T10:04:49.802Z,61.81
2019-06-01T10:06:01.989Z,62.84
2019-06-01T10:06:58.831Z,62.57
2019-06-01T10:08:03.235Z,62.78
2019-06-01T10:09:07.687Z,62.07
2019-06-01T10:10:12.237Z,63.17
2019-06-01T10:11:16.672Z,63.24
2019-06-01T10:12:21.122Z,63.24
2019-06-01T10:13:25.477Z,63.63
2019-06-01T10:14:30.132Z,62.56
2019-06-01T10:15:34.502Z,62.72
2019-06-01T10:16:39.137Z,62.70
2019-06-01T10:17:43.407Z,61.68
2019-06-01T10:18:47.868Z,62.50
2019-06-01T10:19:52.341Z,63.19
2019-06-01T10:20:56.826Z,63.02
2019-06-01T10:22:01.254Z,62.45
2019-06-01T10:23:05.690Z,61.07
2019-06-01T10:24:10.147Z,62.01
2019-06-01T10:25:14.710Z,62.06
2019-06-01T10:26:19.262Z,61.70
2019-06-01T10:27:23.780Z,61.52
2019-06-01T10:28:28.177Z,62.58
2019-06-01T10:29:32.728Z,61.15
2019-06-01T10:30:37.913Z,60.81
2019-06-01T10:31:42.019Z,62.45
2019-06-01T10:32:46.081Z,61.58
2019-06-01T10:33:51.502Z,61.46
2019-06-01T10:34:54.993Z,61.40
2019-06-01T10:35:59.486Z,62.12
2019-06-01T10:37:03.925Z,62.40
2019-06-01T10:38:08.376Z,62.30
2019-06-01T10:39:12.819Z,61.58
2019-06-01T10:40:17.292Z,62.04
2019-06-01T10:41:21.748Z,61.56
2019-06-01T10:42:26.197Z,61.71
2019-06-01T10:43:31.443Z,61.83
2019-06-01T10:44:39.864Z,61.84
2019-06-01T10:45:39.952Z,62.27
2019-06-01T10:46:44.113Z,63.29
2019-06-01T10:47:48.554Z,62.05
2019-06-01T10:48:53.022Z,61.45
2019-06-01T10:49:57.512Z,62.43
2019-06-01T10:51:02.092Z,61.88
2019-06-01T10:52:06.488Z,61.32
2019-06-01T10:53:10.968Z,59.69
2019-06-01T10:54:15.489Z,60.24
2019-06-01T10:55:19.939Z,60.97
2019-06-01T10:56:24.393Z,60.92
2019-06-01T10:57:28.844Z,61.15
2019-06-01T10:58:34.569Z,60.91
2019-06-01T10:59:38.418Z,60.82
2019-06-01T11:00:50.355Z,60.64
2019-06-01T11:01:46.731Z,59.35
2019-06-01T11:02:51.190Z,59.78
2019-06-01T11:03:55.663Z,59.37
2019-06-01T11:05:00.245Z,59.69
2019-06-01T11:06:04.678Z,59.01
2019-06-01T11:07:09.166Z,60.17
2019-06-01T11:08:13.623Z,58.32
2019-06-01T11:09:18.126Z,58.39
2019-06-01T11:10:22.640Z,57.75
2019-06-01T11:11:27.147Z,58.06
2019-06-01T11:12:32.932Z,57.21
2019-06-01T11:13:37.060Z,56.05
2019-06-01T11:14:41.332Z,56.95
2019-06-01T11:15:45.091Z,56.33
2019-06-01T11:16:55.679Z,56.96
2019-06-01T11:17:54.132Z,56.16
2019-06-01T11:18:58.615Z,56.84
2019-06-01T11:20:03.184Z,56.52
2019-06-01T11:21:07.650Z,56.18
2019-06-01T11:22:12.241Z,54.80
2019-06-01T11:23:16.633Z,56.35
2019-06-01T11:24:21.069Z,54.32
2019-06-01T11:25:25.611Z,55.02
2019-06-01T11:26:30.135Z,54.12
2019-06-01T11:27:35.666Z,55.47
2019-06-01T11:28:40.107Z,54.36
2019-06-01T11:29:50.835Z,55.24
2019-06-01T11:30:48.147Z,53.86
2019-06-01T11:31:52.669Z,53.46
2019-06-01T11:32:57.327Z,55.09
2019-06-01T11:34:01.806Z,52.02
2019-06-01T11:35:06.265Z,52.78
2019-06-01T11:36:10.862Z,51.00
2019-06-01T11:37:15.976Z,53.56
2019-06-01T11:38:19.810Z,52.48
2019-06-01T11:39:24.286Z,53.62
2019-06-01T11:40:28.827Z,51.61
2019-06-01T11:41:34.437Z,52.59
2019-06-01T11:42:39.042Z,53.94
2019-06-01T11:43:42.750Z,53.66
2019-06-01T11:44:46.863Z,52.25
2019-06-01T11:45:51.440Z,52.30
2019-06-01T11:46:55.906Z,52.74
2019-06-01T11:48:00.546Z,51.14
2019-06-01T11:49:05.078Z,52.40
2019-06-01T11:50:09.556Z,50.66
2019-06-01T11:51:14.075Z,51.08
2019-06-01T11:52:18.626Z,52.42
2019-06-01T11:53:23.221Z,50.30
2019-06-01T11:54:27.794Z,51.29
2019-06-01T11:55:32.314Z,50.42
2019-06-01T11:56:37.270Z,51.60
2019-06-01T11:57:41.675Z,48.34
2019-06-01T11:58:46.122Z,51.14
2019-06-01T11:59:50.603Z,51.59
2019-06-01T12:00:55.217Z,50.73
2019-06-01T12:01:59.703Z,51.16
2019-06-01T12:03:04.348Z,51.47
2019-06-01T12:04:08.896Z,50.06
2019-06-01T12:05:13.442Z,51.25
2019-06-01T12:06:18.037Z,48.57
2019-06-01T12:07:22.618Z,50.81
2019-06-01T12:08:27.118Z,50.61
2019-06-01T12:09:31.656Z,50.68
2019-06-01T12:10:36.681Z,50.76
2019-06-01T12:11:42.061Z,49.89
2019-06-01T12:12:46.488Z,50.39
2019-06-01T12:13:49.920Z,51.14
2019-06-01T12:14:54.498Z,49.59
2019-06-01T12:15:59.072Z,50.70
2019-06-01T12:17:03.623Z,49.71
2019-06-01T12:18:08.114Z,47.14
2019-06-01T12:19:12.624Z,49.51
2019-06-01T12:20:17.092Z,49.16
2019-06-01T12:21:21.672Z,49.37
2019-06-01T12:22:26.231Z,48.98
2019-06-01T12:23:30.746Z,47.38
2019-06-01T12:24:35.271Z,45.99
2019-06-01T12:25:40.139Z,47.88
2019-06-01T12:26:45.510Z,47.69
2019-06-01T12:27:48.974Z,49.53
2019-06-01T12:28:53.545Z,49.53
2019-06-01T12:29:58.253Z,49.98
2019-06-01T12:31:02.669Z,47.29
2019-06-01T12:32:07.115Z,48.38
2019-06-01T12:33:11.680Z,49.54
2019-06-01T12:34:16.212Z,49.20
2019-06-01T12:35:20.829Z,48.57
2019-06-01T12:36:25.383Z,49.32
2019-06-01T12:37:45.386Z,49.16
2019-06-01T12:38:34.518Z,49.50
2019-06-01T12:39:40.338Z,49.13
2019-06-01T12:40:43.646Z,48.24
2019-06-01T12:41:48.191Z,47.77
2019-06-01T12:42:52.748Z,48.74
2019-06-01T12:43:57.228Z,49.40
2019-06-01T12:45:02.060Z,47.12
2019-06-01T12:46:07.866Z,47.40
2019-06-01T12:47:10.829Z,47.70
2019-06-01T12:48:15.420Z,48.30
2019-06-01T12:49:20.008Z,49.13
2019-06-01T12:50:24.481Z,48.55
2019-06-01T12:51:29.061Z,49.14
2019-06-01T12:52:33.521Z,48.05
2019-06-01T12:53:38.062Z,48.68
2019-06-01T12:54:42.979Z,48.18
2019-06-01T12:55:47.164Z,47.34
2019-06-01T12:56:53.020Z,49.08
2019-06-01T12:57:56.272Z,48.40
2019-06-01T12:59:00.834Z,48.57
2019-06-01T13:00:05.382Z,49.02
2019-06-01T13:01:09.938Z,49.42
2019-06-01T13:02:14.483Z,49.90
2019-06-01T13:03:18.925Z,50.02
2019-06-01T13:04:23.550Z,50.08
2019-06-01T13:05:28.102Z,49.37
2019-06-01T13:06:32.674Z,50.42
2019-06-01T13:07:51.121Z,50.44
2019-06-01T13:08:42.711Z,50.67
2019-06-01T13:09:46.316Z,50.33
2019-06-01T13:10:51.874Z,50.56
2019-06-01T13:11:55.238Z,50.64
2019-06-01T13:12:59.744Z,51.35
2019-06-01T13:14:04.545Z,50.78
2019-06-01T13:15:08.950Z,50.53
2019-06-01T13:16:13.448Z,51.11
2019-06-01T13:17:17.938Z,50.39
2019-06-01T13:18:22.534Z,51.07
2019-06-01T13:19:27.055Z,49.65
2019-06-01T13:20:31.576Z,50.21
2019-06-01T13:21:36.092Z,51.29
2019-06-01T13:22:41.308Z,51.07
2019-06-01T13:23:45.483Z,51.82
2019-06-01T13:24:49.916Z,51.00
2019-06-01T13:25:54.256Z,51.40
2019-06-01T13:26:58.822Z,51.60
2019-06-01T13:28:03.346Z,51.35
2019-06-01T13:29:07.873Z,52.18
2019-06-01T13:30:12.468Z,51.20
2019-06-01T13:31:16.948Z,51.41
2019-06-01T13:32:21.413Z,51.74
2019-06-01T13:33:26.006Z,51.89
2019-06-01T13:34:33.982Z,52.28
2019-06-01T13:35:34.967Z,52.46
2019-06-01T13:36:39.558Z,52.44
2019-06-01T13:37:44.525Z,52.59
2019-06-01T13:38:48.779Z,52.75
2019-06-01T13:39:57.682Z,52.76
2019-06-01T13:40:57.509Z,52.23
2019-06-01T13:42:02.106Z,52.31
2019-06-01T13:43:06.656Z,52.63
2019-06-01T13:44:11.092Z,52.19
2019-06-01T13:45:15.711Z,52.69
2019-06-01T13:46:20.250Z,52.76
2019-06-01T13:47:24.701Z,52.51
2019-06-01T13:48:29.207Z,51.70
2019-06-01T13:49:33.703Z,52.49